Aeroporto :
LOGIN :

Iscrizione | Disclaimer

   EN    FR    IT 

 










Sommario :    VFR   VFR Marginale   IFR   IFR Intensivo   IFR Molto Intensivo
Visibilità : 
Base nubi : 
>= 8 km
>= 3000ft
5 / 8 km
1000 / 3000 ft
1500m / 5 km
500 / 1000 ft
800 / 1500m
200 / 500 ft
< 800m
< 200 ft
Simboli :   Temporali  Nebbia  Neve Forte  Precipitazioni Forti  Vento > 20 kt
SIGMETs :   Varie  Temporali  Ghiacco  Turbolenza  Onda orograficha  Ceneri Vulcaniche







- Altitudine del aeroporto : 327 ft
- Codice IATA : BHX
- Carte del aeroporto


EGBB - Birmingham

ULTIMO METAR :
  • 121520Z 19006KT CAVOK 01/M00 Q1007

METARs OBSOLETI :
  • 121450Z 19006KT CAVOK 01/M01 Q1007
  • 121420Z 20004KT CAVOK 01/M01 Q1007
  • 121350Z 20005KT 160V240 CAVOK 01/M01 Q1007
  • 121320Z 22005KT 170V240 CAVOK 01/M01 Q1008
  • 121250Z 19004KT 150V230 CAVOK 01/M01 Q1007

TAF TAF EGBB
Valido dal 12 a 12 ore il 13 a 12 ore UTC


121102Z 1212/1312 18003KT 9999 FEW035
PROB30
TEMPO 1212/1217 BKN004
BECMG 1217/1220 19013KT 3000 RADZ BKN003
TEMPO 1218/1224 22015G25KT
PROB30
TEMPO 1221/1304 0300 FZFG BKN001
BECMG 1304/1307 9999 NSW SCT030
BECMG 1308/1311 6000 RA BKN009
PROB30
TEMPO 1310/1312 23017G35KT 4000 +RA BKN004
ATIS : +44 121 780 0910
Nessun NOTAM noto per questo aeroporto.
1 SIGMET conosciuto per la FIR London (EGTT) :
 
Turbolenza severa
EGTT SIGMET 03 VALID 121500/121900 EGRR
EGTT LONDON FIR SEV TURB FCST WI N5100 W00726 - N5207 W00519 - N4934 W00416 - N4926 W00456 - N4901 W00703 - N5100 W00726 FL200/420 MOV E 05KT NC=



MetMap, La meteo Aeronautica in un colpo d'occhio ! - Copyright ORBIFLY Dicembre 2007 - Disclaimer

ORBIFLY MET'MAP TEAM :

Programmazione e sviluppo : Alexandra Zaïnal
Concezione e sviluppo : Baudouin d'Aumeries
Co-Programmazione e sviluppo : Marc-Olivier Méhu
Supporto tecnico e logistico : Manuel Goepfert
Aiuto per la traduzione : Arnaldo La Scala

Contatto : metmap@orbifly.com




FONTI E CREDITI :

   NOAA